Malaga, New Mexico
Current Conditions -  °F | °C
As of 10:53 PM on Tuesday 25 Nov 2014 (Local Time) from KCNM Reporting Station
Clear Clear  
Wind Chill: 50°   Ceiling: Unl
Heat Index: 50°   Visibility: 10mi
Dew Point:   Wind: 7mph
Humidity: 19%   Direction: 330°NNW
Pressure: 30.14"   Gusts: NA
Location:  32.23°N, 104.07°W
Report Text: KCNM 260553Z AUTO 33006KT 10SM CLR 10/M13 A3014 RMK AO2 SLP184 T01001128 10128 20100 53001
Loading
Personal Weather Stations






























Interactive Weather Map New forecast layout! Learn more

10-Day Weather Forecast

Advertisements
Track Severe Weather on mobile